Kezdőlap
METAR-TAF:

METAR-TAF

Repülőterek :

Kajaani, Finnország

földrajzi szélesség: 64-17N, földrajzi hosszúság: 027-41E, magasság: 143 m

Jelenlegi meteorológiai megfigyelések

A jelentés 16 perccel ezelõtt készült, 13:20 UTC
Dél-délnyugati szél 11 kt
Hőmérséklet 16°C
Páratartalom 77%
Légköri nyomás 1007 hPa
Látótávolság 10 km, vagy több
Szakadozott felhőzet 1500 lábon

METAR: EFKI 251320Z AUTO 20011KT 9999 BKN015 16/12 Q1007

Idő: 16:36 (13:36 UTC)


TAF: hiányzik

Meteorológiai megfigyelések és előrejelzések több, mint 4000 repülőtéren (METAR és TAF jelentéseket).

A térképen piros és sárga pontok jelzik az elérhető meteorológiai állomásokat.

Mozgassa az egeret a pont fölött, hogy megjelenjen az állomás neve.

Azután kattintson az időjárási megfigyelések és előrejelzések megtekintéséhez.

A térkép megváltoztatása: kattintson a fekete keresztel jelölt zöld gombra ráközelítéshez, a vonallal jelölt zöld gombra távolításhoz, vagy a zöld nyilakra a szomszédos térképek eléréséhez.


METAR-TAF: